Risultati

Download risultati: TXT

Campionati Italiani Sprint
W ELITE - lunghezza: 1400mt - dislivello: 110mt
pos. cat. tempo Nome società p. LB p. CITA vel.
1WE *00:13:16CURZIO LuciaPOLISPORTIVA 'G. MASI'95.520:05:1800:13:16|1400|110|13.27
2WE *00:13:34KIRCHLECHNER ChristineSPORTCLUB MERAN A.S.D.91.150:05:2500:13:34|1400|110|13.57
3WE *00:14:20SCALET NicoleU.S. PRIMIERO A.S.D.81.190:05:4300:14:20|1400|110|14.33
4WE *00:14:56GUIZZARDI MichelaC.U.S. BOLOGNA A.S.D.74.440:05:5800:14:56|1400|110|14.93
5WE *00:15:14TORGGLER HeikeSPORTCLUB MERAN A.S.D.71.360:06:0500:15:14|1400|110|15.23
6WE *00:15:24BRANDI AndreinaCORSAORIENTAMENTO CLUB RO...69.730:06:0900:15:24|1400|110|15.40
7WE *00:15:53BRANDI AdrienneCORSAORIENTAMENTO CLUB RO...65.280:06:2100:15:53|1400|110|15.88
8WE *00:17:27ORLER JessicaU.S. PRIMIERO A.S.D.53.320:06:5800:17:27|1400|110|17.45
9WE *00:17:36CRIPPA Maria ChiaraA.S.D. POLISPORTIVA BESAN...52.340:07:0200:17:36|1400|110|17.60
10WE *00:18:03ROTTENSTEINER SabineSPORTCLUB MERAN A.S.D.49.540:07:1300:18:03|1400|110|18.05
11WE *00:18:12CASALINI MonicaIKP48.650:07:1600:18:12|1400|110|18.20
12WE *00:18:26MARZOLINI MichelaASD ORISASSO47.320:07:2200:18:26|1400|110|18.43
13WE *00:18:27ANEDDA FedericaA.S.D. ORIENTEERING G. GA...47.220:07:2200:18:27|1400|110|18.45
14WE *00:19:01BEZ CristinaORIENTEERING TARZO A.S.D.44.190:07:3600:19:01|1400|110|19.02
15WE *00:19:54CORONA MartinaA.S.D. G.S. PAVIONE39.960:07:5700:19:54|1400|110|19.90
16WE *00:20:51SERGENTI ChiaraIKP36.010:08:2000:20:51|1400|110|20.85
17WE *00:20:54ANEDDA NicoleA.S.D. ORIENTEERING G. GA...35.810:08:2100:20:54|1400|110|20.90
18WE *00:21:12DAVYDCHUK AvgustinaAOK - AGROPOLI ORIENTEERI...34.680:08:2800:21:12|1400|110|21.20
19WE *00:21:39ZUGLIANI ValeriaA.S.D. G.S. PAVIONE33.070:08:3900:21:39|1400|110|21.65
20WE *00:21:44INCERTI LauraIKP32.780:08:4100:21:44|1400|110|21.73
21WE *00:24:04DANDREA ChiaraPANDA ORIENTEERING VALS. ...25.910:09:3700:24:04|1400|110|24.07
22WE *00:24:34NEGRI FedericaA.S.D. POLISPORTIVA BESAN...24.680:09:4900:24:34|1400|110|24.57
23WE *00:24:40DALDON AnaU.S. PRIMIERO A.S.D.24.450:09:5200:24:40|1400|110|24.67
24WE *00:24:44PERANI MartinaC.U.S. BOLOGNA A.S.D.24.290:09:5300:24:44|1400|110|24.73
25WE *00:24:50MARTINELLI SaraIKP24.060:09:5500:24:50|1400|110|24.83
26WE *00:27:41PANZERI AlessiaA.S.D. POLISPORTIVA BESAN...18.480:11:0400:27:41|1400|110|27.68
27WE *00:29:07VITALINI AriannaA.S.D. ORSA MAGGIORE16.280:11:3800:29:07|1400|110|29.12
NPWE *00:00:00SCALET CarlottaU.S. PRIMIERO A.S.D.0:00:0000:00:00|1400|110|0.00
PMWE *00:16:36CARLUCCIO LauraPOLISPORTIVA 'G. MASI'0:06:3800:16:36|1400|110|16.60
Risultati per pagina:

PARTNER UFFICIALI FISO